sensor_id;sensor_type;location;lat;lon;timestamp;P1;durP1;ratioP1;P2;durP2;ratioP2
49193;SDS011;35029;50.804;12.866;2023-11-18T00:00:25;7.93;;;6.82;;
49193;SDS011;35029;50.804;12.866;2023-11-18T00:02:51;10.52;;;7.10;;
49193;SDS011;35029;50.804;12.866;2023-11-18T00:05:17;8.10;;;6.72;;
49193;SDS011;35029;50.804;12.866;2023-11-18T00:07:42;10.00;;;7.07;;
49193;SDS011;35029;50.804;12.866;2023-11-18T00:10:08;10.48;;;7.22;;
49193;SDS011;35029;50.804;12.866;2023-11-18T00:12:35;8.43;;;6.78;;
49193;SDS011;35029;50.804;12.866;2023-11-18T00:15:04;10.40;;;7.68;;
49193;SDS011;35029;50.804;12.866;2023-11-18T00:17:30;9.70;;;7.50;;
49193;SDS011;35029;50.804;12.866;2023-11-18T00:19:57;12.05;;;7.93;;
49193;SDS011;35029;50.804;12.866;2023-11-18T00:22:22;16.70;;;8.43;;
49193;SDS011;35029;50.804;12.866;2023-11-18T00:24:48;11.32;;;7.30;;
49193;SDS011;35029;50.804;12.866;2023-11-18T00:27:14;11.32;;;6.60;;
49193;SDS011;35029;50.804;12.866;2023-11-18T00:29:40;9.07;;;6.82;;
49193;SDS011;35029;50.804;12.866;2023-11-18T00:32:06;8.43;;;6.75;;
49193;SDS011;35029;50.804;12.866;2023-11-18T00:34:32;8.85;;;6.50;;
49193;SDS011;35029;50.804;12.866;2023-11-18T00:36:58;7.15;;;5.38;;
49193;SDS011;35029;50.804;12.866;2023-11-18T00:39:24;7.82;;;6.20;;
49193;SDS011;35029;50.804;12.866;2023-11-18T00:41:51;7.53;;;5.63;;
49193;SDS011;35029;50.804;12.866;2023-11-18T00:44:16;6.38;;;5.47;;
49193;SDS011;35029;50.804;12.866;2023-11-18T00:46:43;8.18;;;5.63;;
49193;SDS011;35029;50.804;12.866;2023-11-18T00:49:08;8.90;;;5.68;;
49193;SDS011;35029;50.804;12.866;2023-11-18T00:51:36;10.40;;;6.35;;
49193;SDS011;35029;50.804;12.866;2023-11-18T00:54:02;8.90;;;5.65;;
49193;SDS011;35029;50.804;12.866;2023-11-18T00:56:30;10.30;;;7.47;;
49193;SDS011;35029;50.804;12.866;2023-11-18T00:58:58;12.57;;;6.15;;
49193;SDS011;35029;50.804;12.866;2023-11-18T01:01:23;8.23;;;6.80;;
49193;SDS011;35029;50.804;12.866;2023-11-18T01:03:49;10.25;;;7.32;;
49193;SDS011;35029;50.804;12.866;2023-11-18T01:06:14;6.80;;;6.05;;
49193;SDS011;35029;50.804;12.866;2023-11-18T01:08:44;9.77;;;6.60;;
49193;SDS011;35029;50.804;12.866;2023-11-18T01:11:10;10.27;;;6.60;;
49193;SDS011;35029;50.804;12.866;2023-11-18T01:13:36;8.63;;;6.05;;
49193;SDS011;35029;50.804;12.866;2023-11-18T01:16:01;10.80;;;6.88;;
49193;SDS011;35029;50.804;12.866;2023-11-18T01:18:27;9.60;;;6.88;;
49193;SDS011;35029;50.804;12.866;2023-11-18T01:20:53;10.70;;;6.50;;
49193;SDS011;35029;50.804;12.866;2023-11-18T01:23:18;6.70;;;5.80;;
49193;SDS011;35029;50.804;12.866;2023-11-18T01:25:44;7.68;;;6.55;;
49193;SDS011;35029;50.804;12.866;2023-11-18T01:28:10;7.82;;;6.53;;
49193;SDS011;35029;50.804;12.866;2023-11-18T01:30:37;9.50;;;6.38;;
49193;SDS011;35029;50.804;12.866;2023-11-18T01:33:02;8.60;;;6.10;;
49193;SDS011;35029;50.804;12.866;2023-11-18T01:35:29;7.18;;;5.60;;
49193;SDS011;35029;50.804;12.866;2023-11-18T01:37:56;6.15;;;4.97;;
49193;SDS011;35029;50.804;12.866;2023-11-18T01:40:22;7.90;;;5.78;;
49193;SDS011;35029;50.804;12.866;2023-11-18T01:42:49;7.10;;;5.88;;
49193;SDS011;35029;50.804;12.866;2023-11-18T01:45:15;8.15;;;6.30;;
49193;SDS011;35029;50.804;12.866;2023-11-18T01:47:42;7.50;;;6.15;;
49193;SDS011;35029;50.804;12.866;2023-11-18T01:50:08;9.02;;;6.18;;
49193;SDS011;35029;50.804;12.866;2023-11-18T01:52:38;7.40;;;6.28;;
49193;SDS011;35029;50.804;12.866;2023-11-18T01:55:04;9.63;;;7.32;;
49193;SDS011;35029;50.804;12.866;2023-11-18T01:57:34;10.52;;;7.47;;
49193;SDS011;35029;50.804;12.866;2023-11-18T01:59:59;11.02;;;7.68;;
49193;SDS011;35029;50.804;12.866;2023-11-18T02:02:38;7.78;;;6.50;;
49193;SDS011;35029;50.804;12.866;2023-11-18T02:05:05;9.70;;;7.38;;
49193;SDS011;35029;50.804;12.866;2023-11-18T02:07:32;9.50;;;6.53;;
49193;SDS011;35029;50.804;12.866;2023-11-18T02:09:59;10.10;;;7.43;;
49193;SDS011;35029;50.804;12.866;2023-11-18T02:12:34;10.00;;;7.13;;
49193;SDS011;35029;50.804;12.866;2023-11-18T02:15:03;11.13;;;7.75;;
49193;SDS011;35029;50.804;12.866;2023-11-18T02:17:35;9.75;;;7.00;;
49193;SDS011;35029;50.804;12.866;2023-11-18T02:20:03;16.10;;;8.35;;
49193;SDS011;35029;50.804;12.866;2023-11-18T02:22:42;11.23;;;8.13;;
49193;SDS011;35029;50.804;12.866;2023-11-18T02:25:11;9.57;;;7.95;;
49193;SDS011;35029;50.804;12.866;2023-11-18T02:27:41;10.60;;;8.23;;
49193;SDS011;35029;50.804;12.866;2023-11-18T02:30:08;12.43;;;8.55;;
49193;SDS011;35029;50.804;12.866;2023-11-18T02:32:59;10.38;;;8.02;;
49193;SDS011;35029;50.804;12.866;2023-11-18T02:35:38;8.50;;;7.60;;
49193;SDS011;35029;50.804;12.866;2023-11-18T02:38:18;9.90;;;7.80;;
49193;SDS011;35029;50.804;12.866;2023-11-18T02:40:48;13.30;;;8.63;;
49193;SDS011;35029;50.804;12.866;2023-11-18T02:43:18;10.30;;;8.60;;
49193;SDS011;35029;50.804;12.866;2023-11-18T02:45:44;12.27;;;7.72;;
49193;SDS011;35029;50.804;12.866;2023-11-18T02:48:11;12.68;;;8.43;;
49193;SDS011;35029;50.804;12.866;2023-11-18T02:50:38;14.10;;;9.30;;
49193;SDS011;35029;50.804;12.866;2023-11-18T02:53:06;12.30;;;8.57;;
49193;SDS011;35029;50.804;12.866;2023-11-18T02:55:34;10.45;;;7.85;;
49193;SDS011;35029;50.804;12.866;2023-11-18T02:58:00;10.52;;;8.32;;
49193;SDS011;35029;50.804;12.866;2023-11-18T03:00:28;10.70;;;9.00;;
49193;SDS011;35029;50.804;12.866;2023-11-18T03:02:54;12.68;;;8.40;;
49193;SDS011;35029;50.804;12.866;2023-11-18T03:05:20;12.20;;;9.38;;
49193;SDS011;35029;50.804;12.866;2023-11-18T03:07:46;11.88;;;9.55;;
49193;SDS011;35029;50.804;12.866;2023-11-18T03:10:20;14.43;;;8.93;;
49193;SDS011;35029;50.804;12.866;2023-11-18T03:12:47;11.63;;;8.50;;
49193;SDS011;35029;50.804;12.866;2023-11-18T03:15:13;13.05;;;8.15;;
49193;SDS011;35029;50.804;12.866;2023-11-18T03:17:43;12.05;;;9.52;;
49193;SDS011;35029;50.804;12.866;2023-11-18T03:20:22;10.13;;;8.15;;
49193;SDS011;35029;50.804;12.866;2023-11-18T03:22:49;11.80;;;8.57;;
49193;SDS011;35029;50.804;12.866;2023-11-18T03:25:17;10.18;;;8.57;;
49193;SDS011;35029;50.804;12.866;2023-11-18T03:27:47;12.60;;;8.23;;
49193;SDS011;35029;50.804;12.866;2023-11-18T03:30:13;9.48;;;7.38;;
49193;SDS011;35029;50.804;12.866;2023-11-18T03:32:39;8.45;;;7.45;;
49193;SDS011;35029;50.804;12.866;2023-11-18T03:35:05;11.23;;;7.20;;
49193;SDS011;35029;50.804;12.866;2023-11-18T03:37:34;13.73;;;8.48;;
49193;SDS011;35029;50.804;12.866;2023-11-18T03:40:00;12.68;;;9.05;;
49193;SDS011;35029;50.804;12.866;2023-11-18T03:42:26;12.18;;;8.30;;
49193;SDS011;35029;50.804;12.866;2023-11-18T03:44:54;10.88;;;8.35;;
49193;SDS011;35029;50.804;12.866;2023-11-18T03:47:19;12.32;;;9.05;;
49193;SDS011;35029;50.804;12.866;2023-11-18T03:49:49;12.75;;;8.88;;
49193;SDS011;35029;50.804;12.866;2023-11-18T03:52:15;11.98;;;9.05;;
49193;SDS011;35029;50.804;12.866;2023-11-18T03:54:41;11.65;;;9.25;;
49193;SDS011;35029;50.804;12.866;2023-11-18T03:57:07;11.10;;;9.20;;
49193;SDS011;35029;50.804;12.866;2023-11-18T03:59:33;14.20;;;8.82;;
49193;SDS011;35029;50.804;12.866;2023-11-18T04:01:59;12.55;;;9.05;;
49193;SDS011;35029;50.804;12.866;2023-11-18T04:04:25;13.80;;;8.77;;
49193;SDS011;35029;50.804;12.866;2023-11-18T04:06:50;11.38;;;8.18;;
49193;SDS011;35029;50.804;12.866;2023-11-18T04:09:16;13.85;;;8.70;;
49193;SDS011;35029;50.804;12.866;2023-11-18T04:11:41;11.38;;;8.77;;
49193;SDS011;35029;50.804;12.866;2023-11-18T04:14:10;11.30;;;9.48;;
49193;SDS011;35029;50.804;12.866;2023-11-18T04:16:36;11.20;;;9.15;;
49193;SDS011;35029;50.804;12.866;2023-11-18T04:19:03;13.63;;;9.88;;
49193;SDS011;35029;50.804;12.866;2023-11-18T04:21:30;13.68;;;9.10;;
49193;SDS011;35029;50.804;12.866;2023-11-18T04:23:56;16.55;;;10.60;;
49193;SDS011;35029;50.804;12.866;2023-11-18T04:26:21;12.02;;;9.13;;
49193;SDS011;35029;50.804;12.866;2023-11-18T04:28:47;12.40;;;9.63;;
49193;SDS011;35029;50.804;12.866;2023-11-18T04:31:12;14.95;;;10.50;;
49193;SDS011;35029;50.804;12.866;2023-11-18T04:33:38;16.95;;;9.50;;
49193;SDS011;35029;50.804;12.866;2023-11-18T04:36:06;13.38;;;10.43;;
49193;SDS011;35029;50.804;12.866;2023-11-18T04:38:35;15.38;;;10.52;;
49193;SDS011;35029;50.804;12.866;2023-11-18T04:41:01;14.70;;;10.07;;
49193;SDS011;35029;50.804;12.866;2023-11-18T04:43:31;16.15;;;10.88;;
49193;SDS011;35029;50.804;12.866;2023-11-18T04:45:58;13.60;;;10.02;;
49193;SDS011;35029;50.804;12.866;2023-11-18T04:48:24;15.73;;;9.15;;
49193;SDS011;35029;50.804;12.866;2023-11-18T04:50:50;13.25;;;10.05;;
49193;SDS011;35029;50.804;12.866;2023-11-18T04:53:15;16.23;;;10.05;;
49193;SDS011;35029;50.804;12.866;2023-11-18T04:55:41;15.05;;;10.43;;
49193;SDS011;35029;50.804;12.866;2023-11-18T04:58:08;17.35;;;10.60;;
49193;SDS011;35029;50.804;12.866;2023-11-18T05:00:37;18.27;;;9.70;;
49193;SDS011;35029;50.804;12.866;2023-11-18T05:03:06;15.85;;;10.55;;
49193;SDS011;35029;50.804;12.866;2023-11-18T05:05:37;15.52;;;11.52;;
49193;SDS011;35029;50.804;12.866;2023-11-18T05:08:06;14.05;;;10.10;;
49193;SDS011;35029;50.804;12.866;2023-11-18T05:10:33;15.23;;;10.15;;
49193;SDS011;35029;50.804;12.866;2023-11-18T05:13:00;15.82;;;10.18;;
49193;SDS011;35029;50.804;12.866;2023-11-18T05:15:26;15.52;;;10.40;;
49193;SDS011;35029;50.804;12.866;2023-11-18T05:17:52;13.75;;;10.50;;
49193;SDS011;35029;50.804;12.866;2023-11-18T05:20:18;17.35;;;11.57;;
49193;SDS011;35029;50.804;12.866;2023-11-18T05:22:44;16.00;;;11.50;;
49193;SDS011;35029;50.804;12.866;2023-11-18T05:25:10;16.95;;;10.85;;
49193;SDS011;35029;50.804;12.866;2023-11-18T05:27:35;17.20;;;11.88;;
49193;SDS011;35029;50.804;12.866;2023-11-18T05:30:01;18.15;;;12.82;;
49193;SDS011;35029;50.804;12.866;2023-11-18T05:32:29;16.58;;;11.93;;
49193;SDS011;35029;50.804;12.866;2023-11-18T05:34:55;17.15;;;13.20;;
49193;SDS011;35029;50.804;12.866;2023-11-18T05:37:23;16.58;;;12.57;;
49193;SDS011;35029;50.804;12.866;2023-11-18T05:39:49;17.10;;;12.57;;
49193;SDS011;35029;50.804;12.866;2023-11-18T05:42:24;17.58;;;12.55;;
49193;SDS011;35029;50.804;12.866;2023-11-18T05:44:52;18.60;;;12.95;;
49193;SDS011;35029;50.804;12.866;2023-11-18T05:47:27;24.60;;;12.73;;
49193;SDS011;35029;50.804;12.866;2023-11-18T05:49:53;17.27;;;12.50;;
49193;SDS011;35029;50.804;12.866;2023-11-18T05:52:19;20.88;;;11.77;;
49193;SDS011;35029;50.804;12.866;2023-11-18T05:54:45;21.30;;;12.38;;
49193;SDS011;35029;50.804;12.866;2023-11-18T05:57:17;17.60;;;11.60;;
49193;SDS011;35029;50.804;12.866;2023-11-18T05:59:43;15.57;;;11.73;;
49193;SDS011;35029;50.804;12.866;2023-11-18T06:02:09;15.25;;;12.20;;
49193;SDS011;35029;50.804;12.866;2023-11-18T06:04:42;16.05;;;11.07;;
49193;SDS011;35029;50.804;12.866;2023-11-18T06:07:08;17.88;;;11.50;;
49193;SDS011;35029;50.804;12.866;2023-11-18T06:09:34;24.60;;;12.38;;
49193;SDS011;35029;50.804;12.866;2023-11-18T06:11:59;17.48;;;11.20;;
49193;SDS011;35029;50.804;12.866;2023-11-18T06:14:26;15.52;;;11.30;;
49193;SDS011;35029;50.804;12.866;2023-11-18T06:16:51;18.38;;;11.40;;
49193;SDS011;35029;50.804;12.866;2023-11-18T06:19:17;16.50;;;12.88;;
49193;SDS011;35029;50.804;12.866;2023-11-18T06:21:43;16.63;;;12.50;;
49193;SDS011;35029;50.804;12.866;2023-11-18T06:24:09;16.67;;;12.32;;
49193;SDS011;35029;50.804;12.866;2023-11-18T06:26:36;15.77;;;11.65;;
49193;SDS011;35029;50.804;12.866;2023-11-18T06:29:02;18.30;;;12.38;;
49193;SDS011;35029;50.804;12.866;2023-11-18T06:31:31;21.85;;;12.18;;
49193;SDS011;35029;50.804;12.866;2023-11-18T06:33:57;15.93;;;11.75;;
49193;SDS011;35029;50.804;12.866;2023-11-18T06:36:22;14.73;;;10.68;;
49193;SDS011;35029;50.804;12.866;2023-11-18T06:38:49;16.63;;;12.75;;
49193;SDS011;35029;50.804;12.866;2023-11-18T06:41:15;17.05;;;12.38;;
49193;SDS011;35029;50.804;12.866;2023-11-18T06:43:45;16.17;;;11.82;;
49193;SDS011;35029;50.804;12.866;2023-11-18T06:48:54;19.67;;;12.05;;
49193;SDS011;35029;50.804;12.866;2023-11-18T06:51:24;17.63;;;12.07;;
49193;SDS011;35029;50.804;12.866;2023-11-18T06:53:55;16.88;;;11.52;;
49193;SDS011;35029;50.804;12.866;2023-11-18T06:56:25;16.73;;;12.20;;
49193;SDS011;35029;50.804;12.866;2023-11-18T06:58:51;19.58;;;11.98;;
49193;SDS011;35029;50.804;12.866;2023-11-18T07:01:18;16.08;;;12.15;;
49193;SDS011;35029;50.804;12.866;2023-11-18T07:03:44;16.42;;;12.18;;
49193;SDS011;35029;50.804;12.866;2023-11-18T07:06:16;20.65;;;12.45;;
49193;SDS011;35029;50.804;12.866;2023-11-18T07:08:50;19.77;;;11.95;;
49193;SDS011;35029;50.804;12.866;2023-11-18T07:11:16;16.80;;;11.32;;
49193;SDS011;35029;50.804;12.866;2023-11-18T07:13:43;14.68;;;11.32;;
49193;SDS011;35029;50.804;12.866;2023-11-18T07:16:09;13.25;;;10.73;;
49193;SDS011;35029;50.804;12.866;2023-11-18T07:18:35;16.02;;;11.55;;
49193;SDS011;35029;50.804;12.866;2023-11-18T07:21:05;13.30;;;10.95;;
49193;SDS011;35029;50.804;12.866;2023-11-18T07:23:32;16.17;;;10.88;;
49193;SDS011;35029;50.804;12.866;2023-11-18T07:25:58;17.02;;;11.63;;
49193;SDS011;35029;50.804;12.866;2023-11-18T07:28:23;14.10;;;10.43;;
49193;SDS011;35029;50.804;12.866;2023-11-18T07:30:50;16.58;;;11.35;;
49193;SDS011;35029;50.804;12.866;2023-11-18T07:33:16;15.15;;;10.50;;
49193;SDS011;35029;50.804;12.866;2023-11-18T07:35:42;14.95;;;11.00;;
49193;SDS011;35029;50.804;12.866;2023-11-18T07:38:08;14.10;;;10.77;;
49193;SDS011;35029;50.804;12.866;2023-11-18T07:40:35;13.63;;;11.10;;
49193;SDS011;35029;50.804;12.866;2023-11-18T07:43:02;16.90;;;11.48;;
49193;SDS011;35029;50.804;12.866;2023-11-18T07:45:34;14.35;;;11.38;;
49193;SDS011;35029;50.804;12.866;2023-11-18T07:48:03;13.65;;;10.02;;
49193;SDS011;35029;50.804;12.866;2023-11-18T07:50:34;16.23;;;10.77;;
49193;SDS011;35029;50.804;12.866;2023-11-18T07:52:59;15.00;;;10.57;;
49193;SDS011;35029;50.804;12.866;2023-11-18T07:55:25;16.35;;;9.77;;
49193;SDS011;35029;50.804;12.866;2023-11-18T07:57:51;14.55;;;10.10;;
49193;SDS011;35029;50.804;12.866;2023-11-18T08:00:17;19.13;;;10.38;;
49193;SDS011;35029;50.804;12.866;2023-11-18T08:02:42;15.02;;;10.68;;
49193;SDS011;35029;50.804;12.866;2023-11-18T08:05:10;13.40;;;10.13;;
49193;SDS011;35029;50.804;12.866;2023-11-18T08:07:40;15.07;;;9.90;;
49193;SDS011;35029;50.804;12.866;2023-11-18T08:10:10;14.25;;;10.55;;
49193;SDS011;35029;50.804;12.866;2023-11-18T08:12:38;13.70;;;9.80;;
49193;SDS011;35029;50.804;12.866;2023-11-18T08:15:05;13.40;;;10.93;;
49193;SDS011;35029;50.804;12.866;2023-11-18T08:17:35;15.68;;;10.32;;
49193;SDS011;35029;50.804;12.866;2023-11-18T08:20:01;14.23;;;10.93;;
49193;SDS011;35029;50.804;12.866;2023-11-18T08:22:39;14.10;;;9.93;;
49193;SDS011;35029;50.804;12.866;2023-11-18T08:25:07;21.30;;;12.02;;
49193;SDS011;35029;50.804;12.866;2023-11-18T08:27:34;15.18;;;10.75;;
49193;SDS011;35029;50.804;12.866;2023-11-18T08:30:01;15.23;;;10.48;;
49193;SDS011;35029;50.804;12.866;2023-11-18T08:32:31;15.93;;;12.07;;
49193;SDS011;35029;50.804;12.866;2023-11-18T08:34:56;16.38;;;11.13;;
49193;SDS011;35029;50.804;12.866;2023-11-18T08:37:22;21.27;;;11.95;;
49193;SDS011;35029;50.804;12.866;2023-11-18T08:39:48;15.88;;;12.60;;
49193;SDS011;35029;50.804;12.866;2023-11-18T08:42:13;17.58;;;11.43;;
49193;SDS011;35029;50.804;12.866;2023-11-18T08:44:40;16.25;;;12.40;;
49193;SDS011;35029;50.804;12.866;2023-11-18T08:47:05;16.98;;;13.40;;
49193;SDS011;35029;50.804;12.866;2023-11-18T08:49:33;16.10;;;11.57;;
49193;SDS011;35029;50.804;12.866;2023-11-18T08:51:59;16.88;;;12.70;;
49193;SDS011;35029;50.804;12.866;2023-11-18T08:54:25;15.82;;;11.20;;
49193;SDS011;35029;50.804;12.866;2023-11-18T08:56:57;16.77;;;11.73;;
49193;SDS011;35029;50.804;12.866;2023-11-18T08:59:23;16.33;;;11.82;;
49193;SDS011;35029;50.804;12.866;2023-11-18T09:01:55;17.67;;;13.25;;
49193;SDS011;35029;50.804;12.866;2023-11-18T09:04:21;19.75;;;12.32;;
49193;SDS011;35029;50.804;12.866;2023-11-18T09:06:48;16.52;;;12.10;;
49193;SDS011;35029;50.804;12.866;2023-11-18T09:09:16;18.63;;;12.88;;
49193;SDS011;35029;50.804;12.866;2023-11-18T09:11:49;16.13;;;12.48;;
49193;SDS011;35029;50.804;12.866;2023-11-18T09:14:14;21.05;;;14.60;;
49193;SDS011;35029;50.804;12.866;2023-11-18T09:16:40;18.98;;;13.77;;
49193;SDS011;35029;50.804;12.866;2023-11-18T09:19:06;18.33;;;14.43;;
49193;SDS011;35029;50.804;12.866;2023-11-18T09:21:32;20.95;;;15.32;;
49193;SDS011;35029;50.804;12.866;2023-11-18T09:24:00;20.10;;;14.70;;
49193;SDS011;35029;50.804;12.866;2023-11-18T09:26:37;21.27;;;14.85;;
49193;SDS011;35029;50.804;12.866;2023-11-18T09:29:03;18.85;;;14.88;;
49193;SDS011;35029;50.804;12.866;2023-11-18T09:31:28;19.60;;;14.00;;
49193;SDS011;35029;50.804;12.866;2023-11-18T09:33:54;22.15;;;14.15;;
49193;SDS011;35029;50.804;12.866;2023-11-18T09:36:22;23.02;;;15.00;;
49193;SDS011;35029;50.804;12.866;2023-11-18T09:38:48;17.73;;;13.85;;
49193;SDS011;35029;50.804;12.866;2023-11-18T09:41:14;20.95;;;14.45;;
49193;SDS011;35029;50.804;12.866;2023-11-18T09:43:41;20.48;;;13.68;;
49193;SDS011;35029;50.804;12.866;2023-11-18T09:46:11;21.52;;;14.85;;
49193;SDS011;35029;50.804;12.866;2023-11-18T09:51:28;23.27;;;15.70;;
49193;SDS011;35029;50.804;12.866;2023-11-18T09:54:08;18.73;;;15.38;;
49193;SDS011;35029;50.804;12.866;2023-11-18T09:59:11;20.02;;;15.35;;
49193;SDS011;35029;50.804;12.866;2023-11-18T10:01:41;18.70;;;14.35;;
49193;SDS011;35029;50.804;12.866;2023-11-18T10:04:09;22.30;;;15.35;;
49193;SDS011;35029;50.804;12.866;2023-11-18T10:06:36;19.30;;;15.05;;
49193;SDS011;35029;50.804;12.866;2023-11-18T10:09:06;18.52;;;15.00;;
49193;SDS011;35029;50.804;12.866;2023-11-18T10:11:42;18.85;;;15.07;;
49193;SDS011;35029;50.804;12.866;2023-11-18T10:14:20;19.45;;;15.35;;
49193;SDS011;35029;50.804;12.866;2023-11-18T10:16:45;23.42;;;16.67;;
49193;SDS011;35029;50.804;12.866;2023-11-18T10:19:12;23.45;;;18.13;;
49193;SDS011;35029;50.804;12.866;2023-11-18T10:21:39;22.10;;;17.73;;
49193;SDS011;35029;50.804;12.866;2023-11-18T10:24:08;22.83;;;17.58;;
49193;SDS011;35029;50.804;12.866;2023-11-18T10:26:42;19.75;;;15.60;;
49193;SDS011;35029;50.804;12.866;2023-11-18T10:29:10;20.88;;;15.77;;
49193;SDS011;35029;50.804;12.866;2023-11-18T10:31:38;25.40;;;17.38;;
49193;SDS011;35029;50.804;12.866;2023-11-18T10:34:13;21.00;;;17.17;;
49193;SDS011;35029;50.804;12.866;2023-11-18T10:36:58;18.35;;;16.05;;
49193;SDS011;35029;50.804;12.866;2023-11-18T10:39:28;22.63;;;16.73;;
49193;SDS011;35029;50.804;12.866;2023-11-18T10:41:58;24.23;;;17.50;;
49193;SDS011;35029;50.804;12.866;2023-11-18T10:44:24;21.55;;;17.27;;
49193;SDS011;35029;50.804;12.866;2023-11-18T10:46:51;20.80;;;15.60;;
49193;SDS011;35029;50.804;12.866;2023-11-18T10:49:24;20.00;;;16.02;;
49193;SDS011;35029;50.804;12.866;2023-11-18T10:51:52;22.10;;;16.33;;
49193;SDS011;35029;50.804;12.866;2023-11-18T10:54:18;17.65;;;15.43;;
49193;SDS011;35029;50.804;12.866;2023-11-18T10:56:50;19.15;;;15.80;;
49193;SDS011;35029;50.804;12.866;2023-11-18T10:59:21;23.67;;;17.77;;
49193;SDS011;35029;50.804;12.866;2023-11-18T11:01:48;19.45;;;16.42;;
49193;SDS011;35029;50.804;12.866;2023-11-18T11:04:14;22.20;;;18.65;;
49193;SDS011;35029;50.804;12.866;2023-11-18T11:06:49;21.90;;;19.42;;
49193;SDS011;35029;50.804;12.866;2023-11-18T11:11:55;22.90;;;15.50;;
49193;SDS011;35029;50.804;12.866;2023-11-18T11:14:31;16.35;;;13.65;;
49193;SDS011;35029;50.804;12.866;2023-11-18T11:17:06;18.98;;;13.15;;
49193;SDS011;35029;50.804;12.866;2023-11-18T11:19:50;18.00;;;14.45;;
49193;SDS011;35029;50.804;12.866;2023-11-18T11:22:23;15.50;;;12.55;;
49193;SDS011;35029;50.804;12.866;2023-11-18T11:27:50;14.52;;;12.73;;
49193;SDS011;35029;50.804;12.866;2023-11-18T11:30:31;17.33;;;12.55;;
49193;SDS011;35029;50.804;12.866;2023-11-18T11:35:40;15.45;;;12.38;;
49193;SDS011;35029;50.804;12.866;2023-11-18T11:38:13;12.77;;;10.85;;
49193;SDS011;35029;50.804;12.866;2023-11-18T11:43:08;16.02;;;11.70;;
49193;SDS011;35029;50.804;12.866;2023-11-18T11:45:36;14.48;;;10.48;;
49193;SDS011;35029;50.804;12.866;2023-11-18T11:48:04;15.68;;;12.18;;
49193;SDS011;35029;50.804;12.866;2023-11-18T11:51:01;15.23;;;11.85;;
49193;SDS011;35029;50.804;12.866;2023-11-18T11:56:12;16.75;;;11.48;;
49193;SDS011;35029;50.804;12.866;2023-11-18T11:58:40;14.85;;;11.15;;
49193;SDS011;35029;50.804;12.866;2023-11-18T12:01:24;14.57;;;11.15;;
49193;SDS011;35029;50.804;12.866;2023-11-18T12:03:58;14.90;;;11.43;;
49193;SDS011;35029;50.804;12.866;2023-11-18T12:06:32;15.02;;;11.45;;
49193;SDS011;35029;50.804;12.866;2023-11-18T12:09:00;14.75;;;10.70;;
49193;SDS011;35029;50.804;12.866;2023-11-18T12:11:32;16.70;;;11.25;;
49193;SDS011;35029;50.804;12.866;2023-11-18T12:14:05;13.40;;;11.95;;
49193;SDS011;35029;50.804;12.866;2023-11-18T12:17:01;14.05;;;11.35;;
49193;SDS011;35029;50.804;12.866;2023-11-18T12:19:36;16.48;;;11.88;;
49193;SDS011;35029;50.804;12.866;2023-11-18T12:22:12;13.90;;;10.75;;
49193;SDS011;35029;50.804;12.866;2023-11-18T12:30:47;10.75;;;8.10;;
49193;SDS011;35029;50.804;12.866;2023-11-18T12:33:04;9.35;;;7.80;;
49193;SDS011;35029;50.804;12.866;2023-11-18T12:35:37;11.73;;;8.23;;
49193;SDS011;35029;50.804;12.866;2023-11-18T12:49:02;12.30;;;8.75;;
49193;SDS011;35029;50.804;12.866;2023-11-18T12:51:30;14.10;;;10.13;;
49193;SDS011;35029;50.804;12.866;2023-11-18T12:53:59;10.32;;;7.90;;
49193;SDS011;35029;50.804;12.866;2023-11-18T12:56:27;11.55;;;8.18;;
49193;SDS011;35029;50.804;12.866;2023-11-18T12:58:55;10.65;;;8.02;;
49193;SDS011;35029;50.804;12.866;2023-11-18T13:01:21;13.32;;;8.50;;
49193;SDS011;35029;50.804;12.866;2023-11-18T13:03:47;13.07;;;8.48;;
49193;SDS011;35029;50.804;12.866;2023-11-18T13:06:13;9.98;;;8.20;;
49193;SDS011;35029;50.804;12.866;2023-11-18T13:08:39;14.30;;;9.18;;
49193;SDS011;35029;50.804;12.866;2023-11-18T13:11:07;12.40;;;10.13;;
49193;SDS011;35029;50.804;12.866;2023-11-18T13:13:41;12.38;;;9.45;;
49193;SDS011;35029;50.804;12.866;2023-11-18T13:16:07;15.77;;;10.45;;
49193;SDS011;35029;50.804;12.866;2023-11-18T13:18:43;11.60;;;8.98;;
49193;SDS011;35029;50.804;12.866;2023-11-18T13:21:13;14.38;;;9.98;;
49193;SDS011;35029;50.804;12.866;2023-11-18T13:23:39;14.48;;;10.23;;
49193;SDS011;35029;50.804;12.866;2023-11-18T13:26:05;14.75;;;10.88;;
49193;SDS011;35029;50.804;12.866;2023-11-18T13:28:31;11.98;;;10.05;;
49193;SDS011;35029;50.804;12.866;2023-11-18T13:30:57;14.73;;;11.02;;
49193;SDS011;35029;50.804;12.866;2023-11-18T13:33:23;15.45;;;11.25;;
49193;SDS011;35029;50.804;12.866;2023-11-18T13:35:49;11.48;;;9.48;;
49193;SDS011;35029;50.804;12.866;2023-11-18T13:38:14;10.68;;;8.95;;
49193;SDS011;35029;50.804;12.866;2023-11-18T13:40:46;12.10;;;9.05;;
49193;SDS011;35029;50.804;12.866;2023-11-18T13:43:13;10.25;;;8.05;;
49193;SDS011;35029;50.804;12.866;2023-11-18T13:45:40;9.70;;;8.43;;
49193;SDS011;35029;50.804;12.866;2023-11-18T13:48:06;10.18;;;8.18;;
49193;SDS011;35029;50.804;12.866;2023-11-18T13:50:36;10.60;;;8.05;;
49193;SDS011;35029;50.804;12.866;2023-11-18T13:53:03;9.13;;;7.20;;
49193;SDS011;35029;50.804;12.866;2023-11-18T13:55:31;8.25;;;6.63;;
49193;SDS011;35029;50.804;12.866;2023-11-18T13:57:57;8.05;;;6.47;;
49193;SDS011;35029;50.804;12.866;2023-11-18T14:00:24;8.70;;;6.80;;
49193;SDS011;35029;50.804;12.866;2023-11-18T14:02:55;8.18;;;6.70;;
49193;SDS011;35029;50.804;12.866;2023-11-18T14:05:23;7.05;;;6.20;;
49193;SDS011;35029;50.804;12.866;2023-11-18T14:07:52;7.05;;;5.93;;
49193;SDS011;35029;50.804;12.866;2023-11-18T14:10:24;8.05;;;5.60;;
49193;SDS011;35029;50.804;12.866;2023-11-18T14:13:06;6.30;;;4.93;;
49193;SDS011;35029;50.804;12.866;2023-11-18T14:15:34;7.00;;;5.70;;
49193;SDS011;35029;50.804;12.866;2023-11-18T14:18:03;7.18;;;5.65;;
49193;SDS011;35029;50.804;12.866;2023-11-18T14:20:29;7.65;;;6.30;;
49193;SDS011;35029;50.804;12.866;2023-11-18T14:22:59;7.90;;;6.30;;
49193;SDS011;35029;50.804;12.866;2023-11-18T14:25:24;8.65;;;6.07;;
49193;SDS011;35029;50.804;12.866;2023-11-18T14:27:50;10.20;;;6.38;;
49193;SDS011;35029;50.804;12.866;2023-11-18T14:30:16;8.85;;;5.68;;
49193;SDS011;35029;50.804;12.866;2023-11-18T14:32:42;7.85;;;5.93;;
49193;SDS011;35029;50.804;12.866;2023-11-18T14:35:08;11.65;;;8.63;;
49193;SDS011;35029;50.804;12.866;2023-11-18T14:37:38;11.98;;;8.52;;
49193;SDS011;35029;50.804;12.866;2023-11-18T14:40:10;11.18;;;7.90;;
49193;SDS011;35029;50.804;12.866;2023-11-18T14:45:04;13.25;;;7.47;;
49193;SDS011;35029;50.804;12.866;2023-11-18T14:47:31;10.60;;;6.78;;
49193;SDS011;35029;50.804;12.866;2023-11-18T14:49:57;11.02;;;6.15;;
49193;SDS011;35029;50.804;12.866;2023-11-18T14:52:23;9.43;;;6.80;;
49193;SDS011;35029;50.804;12.866;2023-11-18T14:54:48;7.85;;;7.05;;
49193;SDS011;35029;50.804;12.866;2023-11-18T14:57:14;13.13;;;8.98;;
49193;SDS011;35029;50.804;12.866;2023-11-18T14:59:40;12.90;;;9.23;;
49193;SDS011;35029;50.804;12.866;2023-11-18T15:02:05;15.25;;;9.80;;